sensor_id;sensor_type;location;lat;lon;timestamp;pressure;altitude;pressure_sealevel;temperature;humidity
25560;BME280;13450;49.374;8.584;2023-04-16T00:02:21;100550.28;;;8.34;100.00
25560;BME280;13450;49.374;8.584;2023-04-16T00:04:47;100553.31;;;8.31;100.00
25560;BME280;13450;49.374;8.584;2023-04-16T00:07:14;100545.13;;;8.32;100.00
25560;BME280;13450;49.374;8.584;2023-04-16T00:09:39;100552.63;;;8.29;100.00
25560;BME280;13450;49.374;8.584;2023-04-16T00:12:05;100554.66;;;8.27;100.00
25560;BME280;13450;49.374;8.584;2023-04-16T00:14:30;100547.63;;;8.25;100.00
25560;BME280;13450;49.374;8.584;2023-04-16T00:16:56;100556.47;;;8.26;100.00
25560;BME280;13450;49.374;8.584;2023-04-16T00:19:21;100556.63;;;8.24;100.00
25560;BME280;13450;49.374;8.584;2023-04-16T00:21:46;100559.81;;;8.20;100.00
25560;BME280;13450;49.374;8.584;2023-04-16T00:24:12;100558.97;;;8.19;100.00
25560;BME280;13450;49.374;8.584;2023-04-16T00:26:37;100554.16;;;8.15;100.00
25560;BME280;13450;49.374;8.584;2023-04-16T00:29:05;100566.78;;;8.13;100.00
25560;BME280;13450;49.374;8.584;2023-04-16T00:31:32;100556.28;;;8.11;100.00
25560;BME280;13450;49.374;8.584;2023-04-16T00:33:58;100566.94;;;8.11;100.00
25560;BME280;13450;49.374;8.584;2023-04-16T00:36:25;100560.97;;;8.09;100.00
25560;BME280;13450;49.374;8.584;2023-04-16T00:38:51;100569.63;;;8.11;100.00
25560;BME280;13450;49.374;8.584;2023-04-16T00:41:17;100561.28;;;8.06;100.00
25560;BME280;13450;49.374;8.584;2023-04-16T00:43:43;100566.47;;;8.07;100.00
25560;BME280;13450;49.374;8.584;2023-04-16T00:46:11;100567.31;;;8.08;100.00
25560;BME280;13450;49.374;8.584;2023-04-16T00:48:37;100565.13;;;8.03;100.00
25560;BME280;13450;49.374;8.584;2023-04-16T00:51:07;100566.78;;;8.04;100.00
25560;BME280;13450;49.374;8.584;2023-04-16T00:53:35;100570.28;;;8.05;100.00
25560;BME280;13450;49.374;8.584;2023-04-16T00:56:05;100571.94;;;8.06;100.00
25560;BME280;13450;49.374;8.584;2023-04-16T00:58:31;100573.97;;;8.04;100.00
25560;BME280;13450;49.374;8.584;2023-04-16T01:00:56;100573.97;;;8.04;100.00
25560;BME280;13450;49.374;8.584;2023-04-16T01:03:23;100579.94;;;8.06;100.00
25560;BME280;13450;49.374;8.584;2023-04-16T01:05:48;100569.28;;;8.06;100.00
25560;BME280;13450;49.374;8.584;2023-04-16T01:08:16;100573.78;;;8.05;100.00
25560;BME280;13450;49.374;8.584;2023-04-16T01:10:42;100572.97;;;8.05;100.00
25560;BME280;13450;49.374;8.584;2023-04-16T01:13:07;100573.63;;;8.07;100.00
25560;BME280;13450;49.374;8.584;2023-04-16T01:15:33;100571.28;;;8.04;100.00
25560;BME280;13450;49.374;8.584;2023-04-16T01:17:58;100571.28;;;8.04;100.00
25560;BME280;13450;49.374;8.584;2023-04-16T01:20:23;100567.94;;;8.02;100.00
25560;BME280;13450;49.374;8.584;2023-04-16T01:22:49;100562.97;;;7.98;100.00
25560;BME280;13450;49.374;8.584;2023-04-16T01:25:14;100570.28;;;7.96;100.00
25560;BME280;13450;49.374;8.584;2023-04-16T01:27:40;100572.28;;;7.94;100.00
25560;BME280;13450;49.374;8.584;2023-04-16T01:30:07;100578.94;;;7.90;100.00
25560;BME280;13450;49.374;8.584;2023-04-16T01:32:32;100576.28;;;7.90;100.00
25560;BME280;13450;49.374;8.584;2023-04-16T01:34:57;100583.59;;;7.88;100.00
25560;BME280;13450;49.374;8.584;2023-04-16T01:37:25;100589.25;;;7.85;100.00
25560;BME280;13450;49.374;8.584;2023-04-16T01:39:51;100586.75;;;7.83;100.00
25560;BME280;13450;49.374;8.584;2023-04-16T01:42:16;100592.25;;;7.82;100.00
25560;BME280;13450;49.374;8.584;2023-04-16T01:44:41;100589.25;;;7.85;100.00
25560;BME280;13450;49.374;8.584;2023-04-16T01:47:07;100606.38;;;7.82;100.00
25560;BME280;13450;49.374;8.584;2023-04-16T01:49:32;100596.72;;;7.81;100.00
25560;BME280;13450;49.374;8.584;2023-04-16T01:51:58;100596.88;;;7.80;100.00
25560;BME280;13450;49.374;8.584;2023-04-16T01:54:25;100602.22;;;7.80;100.00
25560;BME280;13450;49.374;8.584;2023-04-16T01:56:51;100597.22;;;7.77;100.00
25560;BME280;13450;49.374;8.584;2023-04-16T01:59:16;100604.38;;;7.76;100.00
25560;BME280;13450;49.374;8.584;2023-04-16T02:01:44;100608.03;;;7.75;100.00
25560;BME280;13450;49.374;8.584;2023-04-16T02:04:10;100598.72;;;7.71;100.00
25560;BME280;13450;49.374;8.584;2023-04-16T02:06:35;100605.19;;;7.68;100.00
25560;BME280;13450;49.374;8.584;2023-04-16T02:09:01;100606.34;;;7.66;100.00
25560;BME280;13450;49.374;8.584;2023-04-16T02:11:26;100604.34;;;7.68;100.00
25560;BME280;13450;49.374;8.584;2023-04-16T02:13:52;100608.66;;;7.69;100.00
25560;BME280;13450;49.374;8.584;2023-04-16T02:16:17;100607.34;;;7.65;100.00
25560;BME280;13450;49.374;8.584;2023-04-16T02:18:42;100607.50;;;7.63;100.00
25560;BME280;13450;49.374;8.584;2023-04-16T02:21:07;100605.81;;;7.62;100.00
25560;BME280;13450;49.374;8.584;2023-04-16T02:23:33;100606.16;;;7.59;100.00
25560;BME280;13450;49.374;8.584;2023-04-16T02:26:02;100604.16;;;7.61;100.00
25560;BME280;13450;49.374;8.584;2023-04-16T02:28:27;100605.81;;;7.62;100.00
25560;BME280;13450;49.374;8.584;2023-04-16T02:30:52;100610.34;;;7.62;100.00
25560;BME280;13450;49.374;8.584;2023-04-16T02:33:18;100612.84;;;7.63;100.00
25560;BME280;13450;49.374;8.584;2023-04-16T02:35:44;100616.47;;;7.62;100.00
25560;BME280;13450;49.374;8.584;2023-04-16T02:38:09;100609.34;;;7.63;100.00
25560;BME280;13450;49.374;8.584;2023-04-16T02:40:36;100612.84;;;7.63;100.00
25560;BME280;13450;49.374;8.584;2023-04-16T02:43:03;100619.69;;;7.66;100.00
25560;BME280;13450;49.374;8.584;2023-04-16T02:45:31;100618.97;;;7.64;100.00
25560;BME280;13450;49.374;8.584;2023-04-16T02:47:57;100622.34;;;7.66;100.00
25560;BME280;13450;49.374;8.584;2023-04-16T02:50:22;100617.81;;;7.66;100.00
25560;BME280;13450;49.374;8.584;2023-04-16T02:52:47;100625.66;;;7.68;100.00
25560;BME280;13450;49.374;8.584;2023-04-16T02:55:13;100621.34;;;7.67;100.00
25560;BME280;13450;49.374;8.584;2023-04-16T02:57:38;100617.81;;;7.66;100.00
25560;BME280;13450;49.374;8.584;2023-04-16T03:00:04;100623.16;;;7.66;100.00
25560;BME280;13450;49.374;8.584;2023-04-16T03:02:32;100619.50;;;7.67;100.00
25560;BME280;13450;49.374;8.584;2023-04-16T03:04:58;100621.19;;;7.68;100.00
25560;BME280;13450;49.374;8.584;2023-04-16T03:07:23;100615.84;;;7.68;100.00
25560;BME280;13450;49.374;8.584;2023-04-16T03:09:48;100622.00;;;7.69;100.00
25560;BME280;13450;49.374;8.584;2023-04-16T03:12:13;100623.69;;;7.70;100.00
25560;BME280;13450;49.374;8.584;2023-04-16T03:14:39;100624.50;;;7.70;100.00
25560;BME280;13450;49.374;8.584;2023-04-16T03:17:04;100620.88;;;7.71;100.00
25560;BME280;13450;49.374;8.584;2023-04-16T03:19:30;100631.53;;;7.71;100.00
25560;BME280;13450;49.374;8.584;2023-04-16T03:21:55;100624.50;;;7.70;100.00
25560;BME280;13450;49.374;8.584;2023-04-16T03:24:21;100621.69;;;7.72;100.00
25560;BME280;13450;49.374;8.584;2023-04-16T03:26:46;100629.50;;;7.74;100.00
25560;BME280;13450;49.374;8.584;2023-04-16T03:29:11;100621.69;;;7.72;100.00
25560;BME280;13450;49.374;8.584;2023-04-16T03:31:39;100627.84;;;7.72;100.00
25560;BME280;13450;49.374;8.584;2023-04-16T03:34:05;100634.00;;;7.73;100.00
25560;BME280;13450;49.374;8.584;2023-04-16T03:36:30;100630.66;;;7.71;100.00
25560;BME280;13450;49.374;8.584;2023-04-16T03:38:56;100637.81;;;7.70;100.00
25560;BME280;13450;49.374;8.584;2023-04-16T03:41:22;100629.16;;;7.68;100.00
25560;BME280;13450;49.374;8.584;2023-04-16T03:43:47;100640.81;;;7.67;100.00
25560;BME280;13450;49.374;8.584;2023-04-16T03:46:15;100643.50;;;7.67;100.00
25560;BME280;13450;49.374;8.584;2023-04-16T03:48:40;100646.31;;;7.66;100.00
25560;BME280;13450;49.374;8.584;2023-04-16T03:51:05;100648.13;;;7.65;100.00
25560;BME280;13450;49.374;8.584;2023-04-16T03:53:30;100642.78;;;7.65;100.00
25560;BME280;13450;49.374;8.584;2023-04-16T03:55:56;100649.97;;;7.65;100.00
25560;BME280;13450;49.374;8.584;2023-04-16T03:58:21;100647.31;;;7.65;100.00
25560;BME280;13450;49.374;8.584;2023-04-16T04:00:46;100641.13;;;7.64;100.00
25560;BME280;13450;49.374;8.584;2023-04-16T04:03:14;100655.47;;;7.63;100.00
25560;BME280;13450;49.374;8.584;2023-04-16T04:05:41;100643.97;;;7.63;100.00
25560;BME280;13450;49.374;8.584;2023-04-16T04:08:07;100648.44;;;7.62;100.00
25560;BME280;13450;49.374;8.584;2023-04-16T04:10:34;100647.63;;;7.62;100.00
25560;BME280;13450;49.374;8.584;2023-04-16T04:13:02;100648.63;;;7.61;100.00
25560;BME280;13450;49.374;8.584;2023-04-16T04:15:27;100649.59;;;7.59;100.00
25560;BME280;13450;49.374;8.584;2023-04-16T04:17:52;100647.94;;;7.58;100.00
25560;BME280;13450;49.374;8.584;2023-04-16T04:20:20;100656.06;;;7.57;100.00
25560;BME280;13450;49.374;8.584;2023-04-16T04:22:45;100659.59;;;7.57;100.00
25560;BME280;13450;49.374;8.584;2023-04-16T04:25:11;100664.75;;;7.59;100.00
25560;BME280;13450;49.374;8.584;2023-04-16T04:27:36;100654.09;;;7.59;100.00
25560;BME280;13450;49.374;8.584;2023-04-16T04:30:02;100661.09;;;7.60;100.00
25560;BME280;13450;49.374;8.584;2023-04-16T04:32:31;100655.78;;;7.60;100.00
25560;BME280;13450;49.374;8.584;2023-04-16T04:37:22;100657.44;;;7.61;100.00
25560;BME280;13450;49.374;8.584;2023-04-16T04:39:47;100671.09;;;7.58;100.00
25560;BME280;13450;49.374;8.584;2023-04-16T04:42:17;100668.44;;;7.58;100.00
25560;BME280;13450;49.374;8.584;2023-04-16T04:44:43;100672.75;;;7.59;100.00
25560;BME280;13450;49.374;8.584;2023-04-16T04:47:09;100678.06;;;7.59;100.00
25560;BME280;13450;49.374;8.584;2023-04-16T04:49:34;100677.06;;;7.60;100.00
25560;BME280;13450;49.374;8.584;2023-04-16T04:52:00;100671.75;;;7.60;100.00
25560;BME280;13450;49.374;8.584;2023-04-16T04:54:29;100682.41;;;7.60;100.00
25560;BME280;13450;49.374;8.584;2023-04-16T04:56:55;100682.41;;;7.60;100.00
25560;BME280;13450;49.374;8.584;2023-04-16T04:59:21;100683.75;;;7.64;100.00
25560;BME280;13450;49.374;8.584;2023-04-16T05:01:47;100692.25;;;7.68;100.00
25560;BME280;13450;49.374;8.584;2023-04-16T05:04:12;100695.75;;;7.68;100.00
25560;BME280;13450;49.374;8.584;2023-04-16T05:06:38;100691.78;;;7.72;100.00
25560;BME280;13450;49.374;8.584;2023-04-16T05:09:03;100696.13;;;7.74;100.00
25560;BME280;13450;49.374;8.584;2023-04-16T05:11:29;100696.78;;;7.76;100.00
25560;BME280;13450;49.374;8.584;2023-04-16T05:13:54;100693.13;;;7.77;100.00
25560;BME280;13450;49.374;8.584;2023-04-16T05:16:20;100694.81;;;7.78;100.00
25560;BME280;13450;49.374;8.584;2023-04-16T05:18:45;100699.28;;;7.77;100.00
25560;BME280;13450;49.374;8.584;2023-04-16T05:21:10;100702.78;;;7.78;100.00
25560;BME280;13450;49.374;8.584;2023-04-16T05:23:36;100700.13;;;7.78;100.00
25560;BME280;13450;49.374;8.584;2023-04-16T05:26:01;100701.78;;;7.79;100.00
25560;BME280;13450;49.374;8.584;2023-04-16T05:28:26;100709.78;;;7.79;100.00
25560;BME280;13450;49.374;8.584;2023-04-16T05:30:54;100708.78;;;7.80;100.00
25560;BME280;13450;49.374;8.584;2023-04-16T05:33:19;100710.13;;;7.84;100.00
25560;BME280;13450;49.374;8.584;2023-04-16T05:35:47;100717.81;;;7.87;100.00
25560;BME280;13450;49.374;8.584;2023-04-16T05:38:12;100715.16;;;7.87;100.00
25560;BME280;13450;49.374;8.584;2023-04-16T05:40:37;100708.66;;;7.90;100.00
25560;BME280;13450;49.374;8.584;2023-04-16T05:43:03;100703.84;;;7.93;100.00
25560;BME280;13450;49.374;8.584;2023-04-16T05:45:28;100707.84;;;7.97;100.00
25560;BME280;13450;49.374;8.584;2023-04-16T05:47:53;100702.06;;;8.02;100.00
25560;BME280;13450;49.374;8.584;2023-04-16T05:50:18;100703.72;;;8.03;100.00
25560;BME280;13450;49.374;8.584;2023-04-16T05:52:44;100723.88;;;8.06;100.00
25560;BME280;13450;49.374;8.584;2023-04-16T05:55:09;100723.56;;;8.09;100.00
25560;BME280;13450;49.374;8.584;2023-04-16T05:57:34;100724.06;;;8.13;100.00
25560;BME280;13450;49.374;8.584;2023-04-16T06:00:00;100717.56;;;8.15;100.00
25560;BME280;13450;49.374;8.584;2023-04-16T06:02:28;100721.59;;;8.19;100.00
25560;BME280;13450;49.374;8.584;2023-04-16T06:05:00;100719.59;;;8.21;100.00
25560;BME280;13450;49.374;8.584;2023-04-16T06:07:25;100731.78;;;8.24;100.00
25560;BME280;13450;49.374;8.584;2023-04-16T06:09:50;100735.94;;;8.27;100.00
25560;BME280;13450;49.374;8.584;2023-04-16T06:12:20;100735.59;;;8.30;100.00
25560;BME280;13450;49.374;8.584;2023-04-16T06:14:46;100735.59;;;8.30;100.00
25560;BME280;13450;49.374;8.584;2023-04-16T06:17:11;100738.25;;;8.30;100.00
25560;BME280;13450;49.374;8.584;2023-04-16T06:19:36;100737.28;;;8.31;100.00
25560;BME280;13450;49.374;8.584;2023-04-16T06:22:03;100735.28;;;8.33;100.00
25560;BME280;13450;49.374;8.584;2023-04-16T06:24:30;100740.63;;;8.33;100.00
25560;BME280;13450;49.374;8.584;2023-04-16T06:26:58;100742.44;;;8.32;100.00
25560;BME280;13450;49.374;8.584;2023-04-16T06:29:23;100753.28;;;8.31;100.00
25560;BME280;13450;49.374;8.584;2023-04-16T06:31:48;100751.59;;;8.30;100.00
25560;BME280;13450;49.374;8.584;2023-04-16T06:34:14;100744.59;;;8.29;100.00
25560;BME280;13450;49.374;8.584;2023-04-16T06:36:40;100751.59;;;8.30;100.00
25560;BME280;13450;49.374;8.584;2023-04-16T06:39:05;100750.94;;;8.28;100.00
25560;BME280;13450;49.374;8.584;2023-04-16T06:41:30;100758.09;;;8.27;100.00
25560;BME280;13450;49.374;8.584;2023-04-16T06:43:56;100756.94;;;8.30;100.00
25560;BME280;13450;49.374;8.584;2023-04-16T06:46:21;100758.09;;;8.27;100.00
25560;BME280;13450;49.374;8.584;2023-04-16T06:51:26;100768.75;;;8.27;100.00
25560;BME280;13450;49.374;8.584;2023-04-16T06:53:52;100769.25;;;8.22;100.00
25560;BME280;13450;49.374;8.584;2023-04-16T07:01:26;100776.56;;;8.20;100.00
25560;BME280;13450;49.374;8.584;2023-04-16T07:03:55;100774.91;;;8.19;100.00
25560;BME280;13450;49.374;8.584;2023-04-16T07:06:21;100770.25;;;8.21;100.00
25560;BME280;13450;49.374;8.584;2023-04-16T07:08:46;100774.91;;;8.19;100.00
25560;BME280;13450;49.374;8.584;2023-04-16T07:11:11;100773.91;;;8.20;100.00
25560;BME280;13450;49.374;8.584;2023-04-16T07:13:36;100778.94;;;8.23;100.00
25560;BME280;13450;49.374;8.584;2023-04-16T07:16:02;100777.91;;;8.24;100.00
25560;BME280;13450;49.374;8.584;2023-04-16T07:18:27;100781.28;;;8.27;100.00
25560;BME280;13450;49.374;8.584;2023-04-16T07:20:52;100781.94;;;8.29;100.00
25560;BME280;13450;49.374;8.584;2023-04-16T07:23:18;100780.94;;;8.30;100.00
25560;BME280;13450;49.374;8.584;2023-04-16T07:25:43;100779.13;;;8.30;100.00
25560;BME280;13450;49.374;8.584;2023-04-16T07:28:08;100784.09;;;8.25;100.00
25560;BME280;13450;49.374;8.584;2023-04-16T07:30:33;100782.25;;;8.25;100.00
25560;BME280;13450;49.374;8.584;2023-04-16T07:33:01;100789.28;;;8.27;100.00
25560;BME280;13450;49.374;8.584;2023-04-16T07:35:26;100785.91;;;8.24;100.00
25560;BME280;13450;49.374;8.584;2023-04-16T07:37:52;100787.59;;;8.25;100.00
25560;BME280;13450;49.374;8.584;2023-04-16T07:40:17;100799.59;;;8.30;100.00
25560;BME280;13450;49.374;8.584;2023-04-16T07:42:42;100801.28;;;8.31;100.00
25560;BME280;13450;49.374;8.584;2023-04-16T07:45:08;100795.97;;;8.31;100.00
25560;BME280;13450;49.374;8.584;2023-04-16T07:47:33;100798.81;;;8.37;100.00
25560;BME280;13450;49.374;8.584;2023-04-16T07:50:02;100786.31;;;8.46;100.00
25560;BME280;13450;49.374;8.584;2023-04-16T07:52:27;100790.66;;;8.47;100.00
25560;BME280;13450;49.374;8.584;2023-04-16T07:54:52;100790.34;;;8.50;100.00
25560;BME280;13450;49.374;8.584;2023-04-16T07:57:20;100793.53;;;8.54;100.00
25560;BME280;13450;49.374;8.584;2023-04-16T07:59:45;100795.88;;;8.57;100.00
25560;BME280;13450;49.374;8.584;2023-04-16T08:02:13;100790.72;;;8.64;100.00
25560;BME280;13450;49.374;8.584;2023-04-16T08:04:40;100804.41;;;8.69;100.00
25560;BME280;13450;49.374;8.584;2023-04-16T08:07:08;100794.59;;;8.70;100.00
25560;BME280;13450;49.374;8.584;2023-04-16T08:09:34;100795.78;;;8.75;100.00
25560;BME280;13450;49.374;8.584;2023-04-16T08:12:02;100799.13;;;8.86;100.00
25560;BME280;13450;49.374;8.584;2023-04-16T08:14:28;100803.78;;;8.92;100.00
25560;BME280;13450;49.374;8.584;2023-04-16T08:16:53;100804.13;;;8.97;100.00
25560;BME280;13450;49.374;8.584;2023-04-16T08:19:19;100804.13;;;9.06;100.00
25560;BME280;13450;49.374;8.584;2023-04-16T08:21:48;100804.81;;;9.16;100.00
25560;BME280;13450;49.374;8.584;2023-04-16T08:24:13;100809.47;;;9.31;100.00
25560;BME280;13450;49.374;8.584;2023-04-16T08:26:38;100814.13;;;9.45;100.00
25560;BME280;13450;49.374;8.584;2023-04-16T08:29:04;100812.28;;;9.54;100.00
25560;BME280;13450;49.374;8.584;2023-04-16T08:31:30;100820.50;;;9.52;100.00
25560;BME280;13450;49.374;8.584;2023-04-16T08:43:01;100828.19;;;9.31;100.00
25560;BME280;13450;49.374;8.584;2023-04-16T08:45:32;100829.16;;;9.38;100.00
25560;BME280;13450;49.374;8.584;2023-04-16T08:47:59;100832.84;;;9.37;100.00
25560;BME280;13450;49.374;8.584;2023-04-16T08:50:25;100831.50;;;9.41;100.00
25560;BME280;13450;49.374;8.584;2023-04-16T08:52:52;100834.66;;;9.45;100.00
25560;BME280;13450;49.374;8.584;2023-04-16T08:55:25;100833.50;;;9.47;100.00
25560;BME280;13450;49.374;8.584;2023-04-16T08:57:59;100829.31;;;9.45;100.00
25560;BME280;13450;49.374;8.584;2023-04-16T09:00:25;100839.50;;;9.41;100.00
25560;BME280;13450;49.374;8.584;2023-04-16T09:02:51;100835.84;;;9.42;100.00
25560;BME280;13450;49.374;8.584;2023-04-16T09:05:17;100837.84;;;9.40;100.00
25560;BME280;13450;49.374;8.584;2023-04-16T09:07:45;100838.88;;;9.39;100.00
25560;BME280;13450;49.374;8.584;2023-04-16T09:10:11;100847.53;;;9.33;100.00
25560;BME280;13450;49.374;8.584;2023-04-16T09:12:43;100856.72;;;9.30;100.00
25560;BME280;13450;49.374;8.584;2023-04-16T09:15:09;100853.88;;;9.23;100.00
25560;BME280;13450;49.374;8.584;2023-04-16T09:17:35;100856.38;;;9.25;100.00
25560;BME280;13450;49.374;8.584;2023-04-16T09:20:05;100853.88;;;9.23;100.00
25560;BME280;13450;49.374;8.584;2023-04-16T09:22:33;100860.88;;;9.24;100.00
25560;BME280;13450;49.374;8.584;2023-04-16T09:24:58;100851.03;;;9.16;100.00
25560;BME280;13450;49.374;8.584;2023-04-16T09:27:24;100862.88;;;9.22;100.00
25560;BME280;13450;49.374;8.584;2023-04-16T09:29:49;100859.03;;;9.25;100.00
25560;BME280;13450;49.374;8.584;2023-04-16T09:32:15;100865.41;;;9.24;100.00
25560;BME280;13450;49.374;8.584;2023-04-16T09:34:58;100869.41;;;9.20;100.00
25560;BME280;13450;49.374;8.584;2023-04-16T09:37:28;100874.25;;;9.16;100.00
25560;BME280;13450;49.374;8.584;2023-04-16T09:40:01;100872.38;;;9.08;100.00
25560;BME280;13450;49.374;8.584;2023-04-16T09:42:32;100877.22;;;9.05;100.00
25560;BME280;13450;49.374;8.584;2023-04-16T09:44:58;100873.88;;;9.02;100.00
25560;BME280;13450;49.374;8.584;2023-04-16T09:47:25;100877.38;;;9.03;100.00
25560;BME280;13450;49.374;8.584;2023-04-16T09:49:51;100884.88;;;8.99;100.00
25560;BME280;13450;49.374;8.584;2023-04-16T09:52:21;100885.88;;;8.90;100.00
25560;BME280;13450;49.374;8.584;2023-04-16T09:54:51;100885.88;;;8.90;100.00
25560;BME280;13450;49.374;8.584;2023-04-16T09:57:20;100882.84;;;8.85;100.00
25560;BME280;13450;49.374;8.584;2023-04-16T09:59:47;100882.84;;;8.85;100.00
25560;BME280;13450;49.374;8.584;2023-04-16T10:02:12;100889.00;;;8.85;100.00
25560;BME280;13450;49.374;8.584;2023-04-16T10:04:49;100894.03;;;8.88;100.00
25560;BME280;13450;49.374;8.584;2023-04-16T10:07:15;100890.84;;;8.93;100.00
25560;BME280;13450;49.374;8.584;2023-04-16T10:09:41;100898.22;;;8.91;100.00
25560;BME280;13450;49.374;8.584;2023-04-16T10:12:07;100893.19;;;8.88;100.00
25560;BME280;13450;49.374;8.584;2023-04-16T10:14:37;100897.53;;;8.89;100.00
25560;BME280;13450;49.374;8.584;2023-04-16T10:17:02;100888.69;;;8.88;100.00
25560;BME280;13450;49.374;8.584;2023-04-16T10:19:28;100901.53;;;8.85;100.00
25560;BME280;13450;49.374;8.584;2023-04-16T10:21:56;100900.84;;;8.83;100.00
25560;BME280;13450;49.374;8.584;2023-04-16T10:24:22;100905.88;;;8.86;100.00
25560;BME280;13450;49.374;8.584;2023-04-16T10:26:48;100900.84;;;8.83;100.00
25560;BME280;13450;49.374;8.584;2023-04-16T10:29:24;100907.34;;;8.80;100.00
25560;BME280;13450;49.374;8.584;2023-04-16T10:31:51;100913.53;;;8.81;100.00
25560;BME280;13450;49.374;8.584;2023-04-16T10:34:18;100907.50;;;8.79;100.00
25560;BME280;13450;49.374;8.584;2023-04-16T10:36:47;100920.69;;;8.80;100.00
25560;BME280;13450;49.374;8.584;2023-04-16T10:39:17;100908.19;;;8.81;100.00
25560;BME280;13450;49.374;8.584;2023-04-16T10:41:43;100914.34;;;8.81;100.00
25560;BME280;13450;49.374;8.584;2023-04-16T10:44:09;100912.69;;;8.80;100.00
25560;BME280;13450;49.374;8.584;2023-04-16T10:51:39;100905.72;;;8.87;100.00
25560;BME280;13450;49.374;8.584;2023-04-16T10:56:35;100904.72;;;8.88;100.00
25560;BME280;13450;49.374;8.584;2023-04-16T10:59:03;100908.88;;;8.91;100.00
25560;BME280;13450;49.374;8.584;2023-04-16T11:01:35;100907.88;;;8.92;100.00
25560;BME280;13450;49.374;8.584;2023-04-16T11:12:13;100909.91;;;9.07;100.00
25560;BME280;13450;49.374;8.584;2023-04-16T11:14:41;100912.25;;;9.10;100.00
25560;BME280;13450;49.374;8.584;2023-04-16T11:17:07;100909.09;;;9.14;100.00
25560;BME280;13450;49.374;8.584;2023-04-16T11:19:36;100916.97;;;9.16;100.00
25560;BME280;13450;49.374;8.584;2023-04-16T11:22:02;100912.28;;;9.18;100.00
25560;BME280;13450;49.374;8.584;2023-04-16T11:24:31;100910.09;;;9.22;100.00
25560;BME280;13450;49.374;8.584;2023-04-16T11:26:59;100906.97;;;9.26;100.00
25560;BME280;13450;49.374;8.584;2023-04-16T11:29:27;100903.78;;;9.31;100.00
25560;BME280;13450;49.374;8.584;2023-04-16T11:31:53;100909.28;;;9.38;100.00
25560;BME280;13450;49.374;8.584;2023-04-16T11:34:21;100910.63;;;9.42;100.00
25560;BME280;13450;49.374;8.584;2023-04-16T11:36:48;100903.63;;;9.41;100.00
25560;BME280;13450;49.374;8.584;2023-04-16T11:39:14;100907.97;;;9.42;100.00
25560;BME280;13450;49.374;8.584;2023-04-16T11:41:46;100905.63;;;9.39;100.00
25560;BME280;13450;49.374;8.584;2023-04-16T11:44:22;100908.63;;;9.36;100.00
25560;BME280;13450;49.374;8.584;2023-04-16T11:46:49;100909.28;;;9.38;100.00
25560;BME280;13450;49.374;8.584;2023-04-16T11:49:15;100919.66;;;9.41;100.00
25560;BME280;13450;49.374;8.584;2023-04-16T11:51:45;100908.66;;;9.44;100.00
25560;BME280;13450;49.374;8.584;2023-04-16T11:54:18;100913.63;;;9.47;100.00
25560;BME280;13450;49.374;8.584;2023-04-16T11:56:45;100912.50;;;9.50;100.00
25560;BME280;13450;49.374;8.584;2023-04-16T12:04:14;100909.97;;;9.48;100.00
25560;BME280;13450;49.374;8.584;2023-04-16T12:07:02;100915.31;;;9.48;100.00
25560;BME280;13450;49.374;8.584;2023-04-16T12:09:25;100911.66;;;9.49;100.00
25560;BME280;13450;49.374;8.584;2023-04-16T12:11:51;100911.31;;;9.52;100.00
25560;BME280;13450;49.374;8.584;2023-04-16T12:14:18;100905.31;;;9.59;100.00
25560;BME280;13450;49.374;8.584;2023-04-16T12:16:44;100916.31;;;9.64;100.00
25560;BME280;13450;49.374;8.584;2023-04-16T12:19:11;100910.66;;;9.67;100.00
25560;BME280;13450;49.374;8.584;2023-04-16T12:21:43;100911.31;;;9.69;100.00
25560;BME280;13450;49.374;8.584;2023-04-16T12:24:11;100913.97;;;9.69;100.00
25560;BME280;13450;49.374;8.584;2023-04-16T12:26:47;100907.28;;;9.73;100.00
25560;BME280;13450;49.374;8.584;2023-04-16T12:29:25;100908.31;;;9.80;100.00
25560;BME280;13450;49.374;8.584;2023-04-16T12:31:52;100908.78;;;9.84;100.00
25560;BME280;13450;49.374;8.584;2023-04-16T12:34:19;100904.63;;;9.90;100.00
25560;BME280;13450;49.374;8.584;2023-04-16T12:36:46;100912.31;;;9.93;100.00
25560;BME280;13450;49.374;8.584;2023-04-16T12:39:16;100910.75;;;9.99;100.00
25560;BME280;13450;49.374;8.584;2023-04-16T12:41:43;100910.94;;;10.05;100.00
25560;BME280;13450;49.374;8.584;2023-04-16T12:44:15;100911.13;;;10.04;100.00
25560;BME280;13450;49.374;8.584;2023-04-16T12:46:42;100917.44;;;10.03;100.00
25560;BME280;13450;49.374;8.584;2023-04-16T12:49:09;100914.94;;;10.01;100.00
25560;BME280;13450;49.374;8.584;2023-04-16T12:51:36;100911.28;;;10.02;100.00
25560;BME280;13450;49.374;8.584;2023-04-16T12:54:04;100909.94;;;10.06;100.00
25560;BME280;13450;49.374;8.584;2023-04-16T12:56:30;100916.28;;;10.05;100.00
25560;BME280;13450;49.374;8.584;2023-04-16T12:58:55;100914.59;;;10.04;100.00
25560;BME280;13450;49.374;8.584;2023-04-16T13:01:21;100910.94;;;10.05;100.00
25560;BME280;13450;49.374;8.584;2023-04-16T13:03:47;100914.44;;;10.06;100.00
25560;BME280;13450;49.374;8.584;2023-04-16T13:06:13;100910.59;;;10.08;100.00
25560;BME280;13450;49.374;8.584;2023-04-16T13:08:40;100909.94;;;10.06;100.00
25560;BME280;13450;49.374;8.584;2023-04-16T13:11:05;100908.94;;;10.07;100.00
25560;BME280;13450;49.374;8.584;2023-04-16T13:13:31;100913.25;;;10.08;100.00
25560;BME280;13450;49.374;8.584;2023-04-16T13:15:56;100912.94;;;10.12;100.00
25560;BME280;13450;49.374;8.584;2023-04-16T13:18:21;100910.59;;;10.08;100.00
25560;BME280;13450;49.374;8.584;2023-04-16T13:20:47;100912.63;;;10.06;100.00
25560;BME280;13450;49.374;8.584;2023-04-16T13:23:12;100917.97;;;10.06;100.00
25560;BME280;13450;49.374;8.584;2023-04-16T13:25:38;100914.94;;;10.01;100.00
25560;BME280;13450;49.374;8.584;2023-04-16T13:28:03;100915.78;;;10.02;100.00